sensor_id;sensor_type;location;lat;lon;timestamp;P1;durP1;ratioP1;P2;durP2;ratioP2
9214;SDS011;4642;51.364;6.788;2023-05-19T00:01:35;5.67;;;2.67;;
9214;SDS011;4642;51.364;6.788;2023-05-19T00:04:02;5.97;;;2.07;;
9214;SDS011;4642;51.364;6.788;2023-05-19T00:06:29;7.57;;;2.20;;
9214;SDS011;4642;51.364;6.788;2023-05-19T00:09:06;6.60;;;3.10;;
9214;SDS011;4642;51.364;6.788;2023-05-19T00:11:34;8.17;;;2.87;;
9214;SDS011;4642;51.364;6.788;2023-05-19T00:14:01;4.83;;;2.80;;
9214;SDS011;4642;51.364;6.788;2023-05-19T00:16:28;6.17;;;2.53;;
9214;SDS011;4642;51.364;6.788;2023-05-19T00:18:56;7.23;;;2.70;;
9214;SDS011;4642;51.364;6.788;2023-05-19T00:21:23;6.10;;;3.10;;
9214;SDS011;4642;51.364;6.788;2023-05-19T00:23:49;8.40;;;3.03;;
9214;SDS011;4642;51.364;6.788;2023-05-19T00:26:15;9.20;;;3.03;;
9214;SDS011;4642;51.364;6.788;2023-05-19T00:28:40;5.63;;;2.60;;
9214;SDS011;4642;51.364;6.788;2023-05-19T00:31:06;5.33;;;2.57;;
9214;SDS011;4642;51.364;6.788;2023-05-19T00:33:32;6.23;;;2.50;;
9214;SDS011;4642;51.364;6.788;2023-05-19T00:35:58;7.47;;;2.77;;
9214;SDS011;4642;51.364;6.788;2023-05-19T00:38:27;8.20;;;2.60;;
9214;SDS011;4642;51.364;6.788;2023-05-19T00:40:52;5.20;;;2.63;;
9214;SDS011;4642;51.364;6.788;2023-05-19T00:43:18;5.97;;;2.90;;
9214;SDS011;4642;51.364;6.788;2023-05-19T00:45:44;5.80;;;2.87;;
9214;SDS011;4642;51.364;6.788;2023-05-19T00:48:10;6.23;;;2.97;;
9214;SDS011;4642;51.364;6.788;2023-05-19T00:50:36;5.97;;;2.60;;
9214;SDS011;4642;51.364;6.788;2023-05-19T00:53:02;10.00;;;2.73;;
9214;SDS011;4642;51.364;6.788;2023-05-19T00:55:28;6.30;;;2.70;;
9214;SDS011;4642;51.364;6.788;2023-05-19T00:57:55;5.20;;;2.50;;
9214;SDS011;4642;51.364;6.788;2023-05-19T01:00:21;9.77;;;3.07;;
9214;SDS011;4642;51.364;6.788;2023-05-19T01:02:47;5.10;;;3.30;;
9214;SDS011;4642;51.364;6.788;2023-05-19T01:05:14;6.07;;;2.67;;
9214;SDS011;4642;51.364;6.788;2023-05-19T01:07:40;6.17;;;2.77;;
9214;SDS011;4642;51.364;6.788;2023-05-19T01:10:06;8.23;;;3.13;;
9214;SDS011;4642;51.364;6.788;2023-05-19T01:12:33;5.53;;;2.80;;
9214;SDS011;4642;51.364;6.788;2023-05-19T01:14:59;4.23;;;2.73;;
9214;SDS011;4642;51.364;6.788;2023-05-19T01:21:02;6.10;;;3.43;;
9214;SDS011;4642;51.364;6.788;2023-05-19T01:29:06;10.23;;;4.00;;
9214;SDS011;4642;51.364;6.788;2023-05-19T01:31:41;6.50;;;3.27;;
9214;SDS011;4642;51.364;6.788;2023-05-19T01:34:08;5.80;;;2.93;;
9214;SDS011;4642;51.364;6.788;2023-05-19T01:36:35;7.90;;;3.33;;
9214;SDS011;4642;51.364;6.788;2023-05-19T01:39:02;5.63;;;2.83;;
9214;SDS011;4642;51.364;6.788;2023-05-19T01:41:28;5.53;;;3.17;;
9214;SDS011;4642;51.364;6.788;2023-05-19T01:43:56;5.37;;;3.23;;
9214;SDS011;4642;51.364;6.788;2023-05-19T01:46:22;6.13;;;3.20;;
9214;SDS011;4642;51.364;6.788;2023-05-19T01:48:49;12.57;;;3.47;;
9214;SDS011;4642;51.364;6.788;2023-05-19T01:51:15;5.93;;;3.33;;
9214;SDS011;4642;51.364;6.788;2023-05-19T01:53:41;6.43;;;3.63;;
9214;SDS011;4642;51.364;6.788;2023-05-19T01:56:06;7.83;;;3.40;;
9214;SDS011;4642;51.364;6.788;2023-05-19T01:58:45;8.40;;;3.40;;
9214;SDS011;4642;51.364;6.788;2023-05-19T02:04:00;7.63;;;3.40;;
9214;SDS011;4642;51.364;6.788;2023-05-19T02:12:31;6.87;;;3.47;;
9214;SDS011;4642;51.364;6.788;2023-05-19T02:15:16;8.00;;;3.10;;
9214;SDS011;4642;51.364;6.788;2023-05-19T02:17:52;5.57;;;3.10;;
9214;SDS011;4642;51.364;6.788;2023-05-19T02:20:19;3.97;;;3.23;;
9214;SDS011;4642;51.364;6.788;2023-05-19T02:22:46;8.13;;;3.43;;
9214;SDS011;4642;51.364;6.788;2023-05-19T02:25:12;4.93;;;3.30;;
9214;SDS011;4642;51.364;6.788;2023-05-19T02:27:38;7.20;;;3.17;;
9214;SDS011;4642;51.364;6.788;2023-05-19T02:30:04;6.60;;;3.00;;
9214;SDS011;4642;51.364;6.788;2023-05-19T02:32:31;6.77;;;3.10;;
9214;SDS011;4642;51.364;6.788;2023-05-19T02:34:56;7.40;;;4.03;;
9214;SDS011;4642;51.364;6.788;2023-05-19T02:37:22;6.57;;;3.83;;
9214;SDS011;4642;51.364;6.788;2023-05-19T02:39:49;7.10;;;3.40;;
9214;SDS011;4642;51.364;6.788;2023-05-19T02:42:15;6.87;;;2.87;;
9214;SDS011;4642;51.364;6.788;2023-05-19T02:44:42;6.87;;;3.37;;
9214;SDS011;4642;51.364;6.788;2023-05-19T02:47:08;7.20;;;3.70;;
9214;SDS011;4642;51.364;6.788;2023-05-19T02:49:33;6.83;;;4.00;;
9214;SDS011;4642;51.364;6.788;2023-05-19T02:52:00;5.63;;;3.47;;
9214;SDS011;4642;51.364;6.788;2023-05-19T02:54:29;6.30;;;3.77;;
9214;SDS011;4642;51.364;6.788;2023-05-19T02:56:55;9.03;;;3.43;;
9214;SDS011;4642;51.364;6.788;2023-05-19T02:59:21;6.37;;;3.57;;
9214;SDS011;4642;51.364;6.788;2023-05-19T03:01:47;9.23;;;4.17;;
9214;SDS011;4642;51.364;6.788;2023-05-19T03:04:12;12.10;;;4.70;;
9214;SDS011;4642;51.364;6.788;2023-05-19T03:06:38;5.43;;;3.53;;
9214;SDS011;4642;51.364;6.788;2023-05-19T03:09:04;5.77;;;3.30;;
9214;SDS011;4642;51.364;6.788;2023-05-19T03:11:29;7.03;;;4.33;;
9214;SDS011;4642;51.364;6.788;2023-05-19T03:13:55;7.70;;;4.07;;
9214;SDS011;4642;51.364;6.788;2023-05-19T03:16:21;8.40;;;4.03;;
9214;SDS011;4642;51.364;6.788;2023-05-19T03:18:46;7.47;;;3.90;;
9214;SDS011;4642;51.364;6.788;2023-05-19T03:21:12;8.87;;;4.47;;
9214;SDS011;4642;51.364;6.788;2023-05-19T03:23:38;6.67;;;4.10;;
9214;SDS011;4642;51.364;6.788;2023-05-19T03:26:03;6.43;;;3.70;;
9214;SDS011;4642;51.364;6.788;2023-05-19T03:28:29;7.93;;;4.13;;
9214;SDS011;4642;51.364;6.788;2023-05-19T03:30:54;7.00;;;4.20;;
9214;SDS011;4642;51.364;6.788;2023-05-19T03:33:20;9.13;;;4.63;;
9214;SDS011;4642;51.364;6.788;2023-05-19T03:35:46;9.00;;;3.97;;
9214;SDS011;4642;51.364;6.788;2023-05-19T03:38:11;7.33;;;3.57;;
9214;SDS011;4642;51.364;6.788;2023-05-19T03:40:37;5.97;;;4.10;;
9214;SDS011;4642;51.364;6.788;2023-05-19T03:43:02;8.60;;;4.47;;
9214;SDS011;4642;51.364;6.788;2023-05-19T03:45:28;9.00;;;5.13;;
9214;SDS011;4642;51.364;6.788;2023-05-19T03:47:53;9.73;;;4.90;;
9214;SDS011;4642;51.364;6.788;2023-05-19T03:50:19;8.17;;;4.33;;
9214;SDS011;4642;51.364;6.788;2023-05-19T03:52:45;7.40;;;4.67;;
9214;SDS011;4642;51.364;6.788;2023-05-19T03:55:12;7.97;;;4.33;;
9214;SDS011;4642;51.364;6.788;2023-05-19T03:57:38;9.27;;;4.97;;
9214;SDS011;4642;51.364;6.788;2023-05-19T04:00:05;12.60;;;4.77;;
9214;SDS011;4642;51.364;6.788;2023-05-19T04:02:31;8.93;;;4.67;;
9214;SDS011;4642;51.364;6.788;2023-05-19T04:04:57;11.10;;;5.07;;
9214;SDS011;4642;51.364;6.788;2023-05-19T04:07:22;6.20;;;4.10;;
9214;SDS011;4642;51.364;6.788;2023-05-19T04:09:48;8.63;;;4.73;;
9214;SDS011;4642;51.364;6.788;2023-05-19T04:12:14;8.53;;;4.93;;
9214;SDS011;4642;51.364;6.788;2023-05-19T04:14:40;10.67;;;4.87;;
9214;SDS011;4642;51.364;6.788;2023-05-19T04:17:06;8.10;;;4.93;;
9214;SDS011;4642;51.364;6.788;2023-05-19T04:19:32;10.17;;;5.23;;
9214;SDS011;4642;51.364;6.788;2023-05-19T04:21:57;7.67;;;4.70;;
9214;SDS011;4642;51.364;6.788;2023-05-19T04:24:23;10.80;;;4.50;;
9214;SDS011;4642;51.364;6.788;2023-05-19T04:26:48;7.03;;;4.70;;
9214;SDS011;4642;51.364;6.788;2023-05-19T04:29:14;9.20;;;5.00;;
9214;SDS011;4642;51.364;6.788;2023-05-19T04:31:42;9.90;;;5.90;;
9214;SDS011;4642;51.364;6.788;2023-05-19T04:34:10;13.20;;;4.57;;
9214;SDS011;4642;51.364;6.788;2023-05-19T04:36:35;12.97;;;5.00;;
9214;SDS011;4642;51.364;6.788;2023-05-19T04:39:01;10.90;;;5.10;;
9214;SDS011;4642;51.364;6.788;2023-05-19T04:41:30;10.80;;;5.33;;
9214;SDS011;4642;51.364;6.788;2023-05-19T04:43:57;13.37;;;4.73;;
9214;SDS011;4642;51.364;6.788;2023-05-19T04:46:23;10.03;;;4.83;;
9214;SDS011;4642;51.364;6.788;2023-05-19T04:48:49;8.37;;;5.40;;
9214;SDS011;4642;51.364;6.788;2023-05-19T04:51:15;11.10;;;4.93;;
9214;SDS011;4642;51.364;6.788;2023-05-19T04:53:41;8.77;;;5.47;;
9214;SDS011;4642;51.364;6.788;2023-05-19T04:56:08;8.17;;;5.10;;
9214;SDS011;4642;51.364;6.788;2023-05-19T04:58:33;11.63;;;5.30;;
9214;SDS011;4642;51.364;6.788;2023-05-19T05:00:59;8.17;;;4.83;;
9214;SDS011;4642;51.364;6.788;2023-05-19T05:03:25;12.23;;;5.70;;
9214;SDS011;4642;51.364;6.788;2023-05-19T05:05:50;7.23;;;5.33;;
9214;SDS011;4642;51.364;6.788;2023-05-19T05:08:16;6.10;;;4.77;;
9214;SDS011;4642;51.364;6.788;2023-05-19T05:10:47;9.00;;;5.70;;
9214;SDS011;4642;51.364;6.788;2023-05-19T05:13:21;15.30;;;5.23;;
9214;SDS011;4642;51.364;6.788;2023-05-19T05:15:47;14.90;;;5.70;;
9214;SDS011;4642;51.364;6.788;2023-05-19T05:18:13;11.90;;;5.80;;
9214;SDS011;4642;51.364;6.788;2023-05-19T05:20:41;8.60;;;5.00;;
9214;SDS011;4642;51.364;6.788;2023-05-19T05:23:08;11.40;;;5.43;;
9214;SDS011;4642;51.364;6.788;2023-05-19T05:25:35;8.97;;;5.57;;
9214;SDS011;4642;51.364;6.788;2023-05-19T05:28:00;5.97;;;4.93;;
9214;SDS011;4642;51.364;6.788;2023-05-19T05:30:29;10.13;;;5.07;;
9214;SDS011;4642;51.364;6.788;2023-05-19T05:32:55;7.20;;;4.77;;
9214;SDS011;4642;51.364;6.788;2023-05-19T05:35:21;10.20;;;4.97;;
9214;SDS011;4642;51.364;6.788;2023-05-19T05:37:48;9.87;;;5.60;;
9214;SDS011;4642;51.364;6.788;2023-05-19T05:40:13;10.87;;;4.80;;
9214;SDS011;4642;51.364;6.788;2023-05-19T05:42:40;10.00;;;4.90;;
9214;SDS011;4642;51.364;6.788;2023-05-19T05:45:06;10.07;;;5.70;;
9214;SDS011;4642;51.364;6.788;2023-05-19T05:47:32;9.73;;;4.67;;
9214;SDS011;4642;51.364;6.788;2023-05-19T05:49:58;8.13;;;4.17;;
9214;SDS011;4642;51.364;6.788;2023-05-19T05:52:25;7.53;;;4.23;;
9214;SDS011;4642;51.364;6.788;2023-05-19T05:54:54;9.47;;;4.23;;
9214;SDS011;4642;51.364;6.788;2023-05-19T05:57:20;9.53;;;4.20;;
9214;SDS011;4642;51.364;6.788;2023-05-19T05:59:46;7.67;;;3.70;;
9214;SDS011;4642;51.364;6.788;2023-05-19T06:02:11;13.83;;;4.23;;
9214;SDS011;4642;51.364;6.788;2023-05-19T06:04:37;8.13;;;3.57;;
9214;SDS011;4642;51.364;6.788;2023-05-19T06:07:03;11.80;;;3.57;;
9214;SDS011;4642;51.364;6.788;2023-05-19T06:09:29;9.33;;;3.57;;
9214;SDS011;4642;51.364;6.788;2023-05-19T06:11:56;7.23;;;3.67;;
9214;SDS011;4642;51.364;6.788;2023-05-19T06:14:23;8.43;;;3.53;;
9214;SDS011;4642;51.364;6.788;2023-05-19T06:16:48;12.03;;;3.63;;
9214;SDS011;4642;51.364;6.788;2023-05-19T06:19:14;11.03;;;3.87;;
9214;SDS011;4642;51.364;6.788;2023-05-19T06:21:40;8.93;;;3.57;;
9214;SDS011;4642;51.364;6.788;2023-05-19T06:24:07;9.33;;;3.20;;
9214;SDS011;4642;51.364;6.788;2023-05-19T06:26:32;8.67;;;4.00;;
9214;SDS011;4642;51.364;6.788;2023-05-19T06:28:58;7.70;;;3.50;;
9214;SDS011;4642;51.364;6.788;2023-05-19T06:31:23;6.43;;;3.00;;
9214;SDS011;4642;51.364;6.788;2023-05-19T06:33:50;5.70;;;2.97;;
9214;SDS011;4642;51.364;6.788;2023-05-19T06:36:16;12.77;;;5.10;;
9214;SDS011;4642;51.364;6.788;2023-05-19T06:38:41;6.03;;;3.17;;
9214;SDS011;4642;51.364;6.788;2023-05-19T06:41:07;9.00;;;3.03;;
9214;SDS011;4642;51.364;6.788;2023-05-19T06:43:32;10.00;;;3.20;;
9214;SDS011;4642;51.364;6.788;2023-05-19T06:45:58;6.07;;;3.00;;
9214;SDS011;4642;51.364;6.788;2023-05-19T06:48:23;9.47;;;3.33;;
9214;SDS011;4642;51.364;6.788;2023-05-19T06:50:49;7.07;;;2.97;;
9214;SDS011;4642;51.364;6.788;2023-05-19T06:53:15;8.73;;;2.93;;
9214;SDS011;4642;51.364;6.788;2023-05-19T06:55:42;10.67;;;2.50;;
9214;SDS011;4642;51.364;6.788;2023-05-19T06:58:08;5.17;;;2.70;;
9214;SDS011;4642;51.364;6.788;2023-05-19T07:00:33;5.50;;;2.43;;
9214;SDS011;4642;51.364;6.788;2023-05-19T07:02:59;7.57;;;2.73;;
9214;SDS011;4642;51.364;6.788;2023-05-19T07:05:25;5.63;;;2.93;;
9214;SDS011;4642;51.364;6.788;2023-05-19T07:07:50;4.27;;;2.50;;
9214;SDS011;4642;51.364;6.788;2023-05-19T07:10:16;6.77;;;2.33;;
9214;SDS011;4642;51.364;6.788;2023-05-19T07:12:41;6.77;;;2.40;;
9214;SDS011;4642;51.364;6.788;2023-05-19T07:15:07;5.97;;;2.37;;
9214;SDS011;4642;51.364;6.788;2023-05-19T07:17:33;5.10;;;2.10;;
9214;SDS011;4642;51.364;6.788;2023-05-19T07:19:58;5.67;;;2.20;;
9214;SDS011;4642;51.364;6.788;2023-05-19T07:22:25;6.20;;;2.43;;
9214;SDS011;4642;51.364;6.788;2023-05-19T07:24:51;7.70;;;2.80;;
9214;SDS011;4642;51.364;6.788;2023-05-19T07:27:16;11.23;;;2.67;;
9214;SDS011;4642;51.364;6.788;2023-05-19T07:29:42;5.07;;;2.40;;
9214;SDS011;4642;51.364;6.788;2023-05-19T07:32:07;6.63;;;2.00;;
9214;SDS011;4642;51.364;6.788;2023-05-19T07:34:33;6.90;;;2.50;;
9214;SDS011;4642;51.364;6.788;2023-05-19T07:36:58;3.77;;;2.17;;
9214;SDS011;4642;51.364;6.788;2023-05-19T07:39:24;9.23;;;2.87;;
9214;SDS011;4642;51.364;6.788;2023-05-19T07:41:53;9.37;;;2.63;;
9214;SDS011;4642;51.364;6.788;2023-05-19T07:44:19;7.70;;;2.47;;
9214;SDS011;4642;51.364;6.788;2023-05-19T07:46:45;10.50;;;2.10;;
9214;SDS011;4642;51.364;6.788;2023-05-19T07:49:11;7.17;;;1.83;;
9214;SDS011;4642;51.364;6.788;2023-05-19T07:51:37;5.80;;;2.40;;
9214;SDS011;4642;51.364;6.788;2023-05-19T07:54:02;8.37;;;2.20;;
9214;SDS011;4642;51.364;6.788;2023-05-19T07:56:28;7.33;;;1.90;;
9214;SDS011;4642;51.364;6.788;2023-05-19T07:58:53;2.60;;;1.50;;
9214;SDS011;4642;51.364;6.788;2023-05-19T08:01:19;6.93;;;1.93;;
9214;SDS011;4642;51.364;6.788;2023-05-19T08:03:45;6.20;;;1.80;;
9214;SDS011;4642;51.364;6.788;2023-05-19T08:06:10;9.53;;;2.13;;
9214;SDS011;4642;51.364;6.788;2023-05-19T08:08:36;6.00;;;1.97;;
9214;SDS011;4642;51.364;6.788;2023-05-19T08:11:02;5.13;;;1.80;;
9214;SDS011;4642;51.364;6.788;2023-05-19T08:13:28;6.47;;;2.53;;
9214;SDS011;4642;51.364;6.788;2023-05-19T08:15:54;4.13;;;1.67;;
9214;SDS011;4642;51.364;6.788;2023-05-19T08:18:23;5.67;;;1.90;;
9214;SDS011;4642;51.364;6.788;2023-05-19T08:20:49;4.03;;;1.60;;
9214;SDS011;4642;51.364;6.788;2023-05-19T08:23:15;3.47;;;1.03;;
9214;SDS011;4642;51.364;6.788;2023-05-19T08:25:41;4.87;;;1.30;;
9214;SDS011;4642;51.364;6.788;2023-05-19T08:28:07;5.83;;;1.63;;
9214;SDS011;4642;51.364;6.788;2023-05-19T08:30:32;7.70;;;1.87;;
9214;SDS011;4642;51.364;6.788;2023-05-19T08:32:58;4.70;;;1.70;;
9214;SDS011;4642;51.364;6.788;2023-05-19T08:35:23;5.97;;;1.70;;
9214;SDS011;4642;51.364;6.788;2023-05-19T08:37:49;4.83;;;1.80;;
9214;SDS011;4642;51.364;6.788;2023-05-19T08:40:15;7.03;;;1.60;;
9214;SDS011;4642;51.364;6.788;2023-05-19T08:42:42;7.70;;;1.40;;
9214;SDS011;4642;51.364;6.788;2023-05-19T08:45:11;4.30;;;1.50;;
9214;SDS011;4642;51.364;6.788;2023-05-19T08:47:37;4.73;;;1.40;;
9214;SDS011;4642;51.364;6.788;2023-05-19T08:50:09;3.83;;;1.37;;
9214;SDS011;4642;51.364;6.788;2023-05-19T08:52:42;5.43;;;1.47;;
9214;SDS011;4642;51.364;6.788;2023-05-19T08:57:57;6.30;;;1.70;;
9214;SDS011;4642;51.364;6.788;2023-05-19T09:00:25;4.00;;;1.40;;
9214;SDS011;4642;51.364;6.788;2023-05-19T09:02:51;4.63;;;1.43;;
9214;SDS011;4642;51.364;6.788;2023-05-19T09:05:17;5.87;;;1.50;;
9214;SDS011;4642;51.364;6.788;2023-05-19T09:07:43;5.67;;;1.40;;
9214;SDS011;4642;51.364;6.788;2023-05-19T09:10:09;4.13;;;1.40;;
9214;SDS011;4642;51.364;6.788;2023-05-19T09:12:39;5.93;;;1.73;;
9214;SDS011;4642;51.364;6.788;2023-05-19T09:15:06;4.40;;;1.10;;
9214;SDS011;4642;51.364;6.788;2023-05-19T09:17:33;4.23;;;1.30;;
9214;SDS011;4642;51.364;6.788;2023-05-19T09:20:01;5.33;;;1.53;;
9214;SDS011;4642;51.364;6.788;2023-05-19T09:22:28;4.27;;;1.30;;
9214;SDS011;4642;51.364;6.788;2023-05-19T09:24:54;4.43;;;1.50;;
9214;SDS011;4642;51.364;6.788;2023-05-19T09:27:21;8.67;;;1.77;;
9214;SDS011;4642;51.364;6.788;2023-05-19T09:29:49;7.43;;;2.10;;
9214;SDS011;4642;51.364;6.788;2023-05-19T09:32:24;6.23;;;1.37;;
9214;SDS011;4642;51.364;6.788;2023-05-19T09:34:52;7.03;;;2.13;;
9214;SDS011;4642;51.364;6.788;2023-05-19T09:37:21;6.63;;;1.47;;
9214;SDS011;4642;51.364;6.788;2023-05-19T09:39:48;5.43;;;1.40;;
9214;SDS011;4642;51.364;6.788;2023-05-19T09:42:22;7.07;;;1.60;;
9214;SDS011;4642;51.364;6.788;2023-05-19T09:44:50;5.40;;;1.53;;
9214;SDS011;4642;51.364;6.788;2023-05-19T09:47:24;5.10;;;1.60;;
9214;SDS011;4642;51.364;6.788;2023-05-19T09:49:51;7.00;;;2.10;;
9214;SDS011;4642;51.364;6.788;2023-05-19T09:52:17;5.37;;;1.47;;
9214;SDS011;4642;51.364;6.788;2023-05-19T09:54:44;4.00;;;1.53;;
9214;SDS011;4642;51.364;6.788;2023-05-19T09:57:11;4.70;;;1.47;;
9214;SDS011;4642;51.364;6.788;2023-05-19T09:59:36;5.03;;;1.33;;
9214;SDS011;4642;51.364;6.788;2023-05-19T10:02:03;7.73;;;1.43;;
9214;SDS011;4642;51.364;6.788;2023-05-19T10:04:29;6.63;;;1.67;;
9214;SDS011;4642;51.364;6.788;2023-05-19T10:06:56;8.23;;;1.80;;
9214;SDS011;4642;51.364;6.788;2023-05-19T10:09:29;4.97;;;1.30;;
9214;SDS011;4642;51.364;6.788;2023-05-19T10:11:55;4.67;;;1.60;;
9214;SDS011;4642;51.364;6.788;2023-05-19T10:14:22;3.63;;;1.50;;
9214;SDS011;4642;51.364;6.788;2023-05-19T10:16:52;4.67;;;1.50;;
9214;SDS011;4642;51.364;6.788;2023-05-19T10:19:22;5.47;;;1.67;;
9214;SDS011;4642;51.364;6.788;2023-05-19T10:21:50;5.47;;;2.17;;
9214;SDS011;4642;51.364;6.788;2023-05-19T10:24:16;6.00;;;1.37;;
9214;SDS011;4642;51.364;6.788;2023-05-19T10:27:02;8.77;;;1.43;;
9214;SDS011;4642;51.364;6.788;2023-05-19T10:29:33;4.47;;;1.60;;
9214;SDS011;4642;51.364;6.788;2023-05-19T10:32:03;3.93;;;1.30;;
9214;SDS011;4642;51.364;6.788;2023-05-19T10:34:49;6.80;;;1.73;;
9214;SDS011;4642;51.364;6.788;2023-05-19T10:40:08;4.87;;;1.83;;
9214;SDS011;4642;51.364;6.788;2023-05-19T10:45:50;9.03;;;1.67;;
9214;SDS011;4642;51.364;6.788;2023-05-19T10:48:20;3.40;;;1.33;;
9214;SDS011;4642;51.364;6.788;2023-05-19T10:50:47;3.67;;;1.80;;
9214;SDS011;4642;51.364;6.788;2023-05-19T10:53:14;3.93;;;1.43;;
9214;SDS011;4642;51.364;6.788;2023-05-19T10:55:45;3.43;;;1.13;;
9214;SDS011;4642;51.364;6.788;2023-05-19T10:58:22;7.60;;;1.60;;
9214;SDS011;4642;51.364;6.788;2023-05-19T11:01:18;8.40;;;1.60;;
9214;SDS011;4642;51.364;6.788;2023-05-19T11:03:52;4.23;;;1.37;;
9214;SDS011;4642;51.364;6.788;2023-05-19T11:06:28;2.23;;;1.23;;
9214;SDS011;4642;51.364;6.788;2023-05-19T11:08:57;3.50;;;1.27;;
9214;SDS011;4642;51.364;6.788;2023-05-19T11:11:47;5.17;;;1.50;;
9214;SDS011;4642;51.364;6.788;2023-05-19T11:14:13;2.87;;;1.30;;
9214;SDS011;4642;51.364;6.788;2023-05-19T11:16:45;4.53;;;1.83;;
9214;SDS011;4642;51.364;6.788;2023-05-19T11:19:24;3.33;;;1.30;;
9214;SDS011;4642;51.364;6.788;2023-05-19T11:21:54;4.33;;;1.30;;
9214;SDS011;4642;51.364;6.788;2023-05-19T11:27:24;5.60;;;1.67;;
9214;SDS011;4642;51.364;6.788;2023-05-19T11:29:55;4.67;;;1.47;;
9214;SDS011;4642;51.364;6.788;2023-05-19T11:32:29;5.90;;;1.60;;
9214;SDS011;4642;51.364;6.788;2023-05-19T11:34:57;2.43;;;1.23;;
9214;SDS011;4642;51.364;6.788;2023-05-19T11:37:23;4.40;;;1.87;;
9214;SDS011;4642;51.364;6.788;2023-05-19T11:39:49;4.93;;;1.67;;
9214;SDS011;4642;51.364;6.788;2023-05-19T11:42:16;2.80;;;1.43;;
9214;SDS011;4642;51.364;6.788;2023-05-19T11:44:42;4.33;;;1.40;;
9214;SDS011;4642;51.364;6.788;2023-05-19T11:47:12;5.50;;;1.53;;
9214;SDS011;4642;51.364;6.788;2023-05-19T11:49:42;4.93;;;1.70;;
9214;SDS011;4642;51.364;6.788;2023-05-19T11:52:09;4.87;;;1.40;;
9214;SDS011;4642;51.364;6.788;2023-05-19T11:54:35;4.57;;;1.80;;
9214;SDS011;4642;51.364;6.788;2023-05-19T11:57:04;2.93;;;1.50;;
9214;SDS011;4642;51.364;6.788;2023-05-19T11:59:33;6.80;;;1.40;;
9214;SDS011;4642;51.364;6.788;2023-05-19T12:02:01;8.90;;;1.70;;
9214;SDS011;4642;51.364;6.788;2023-05-19T12:04:28;4.70;;;1.53;;
9214;SDS011;4642;51.364;6.788;2023-05-19T12:06:54;6.00;;;1.60;;
9214;SDS011;4642;51.364;6.788;2023-05-19T12:09:23;4.63;;;1.70;;
9214;SDS011;4642;51.364;6.788;2023-05-19T12:11:50;4.83;;;1.80;;
9214;SDS011;4642;51.364;6.788;2023-05-19T12:14:16;4.80;;;1.83;;
9214;SDS011;4642;51.364;6.788;2023-05-19T12:16:42;5.63;;;1.60;;
9214;SDS011;4642;51.364;6.788;2023-05-19T12:19:07;5.80;;;1.50;;
9214;SDS011;4642;51.364;6.788;2023-05-19T12:21:33;3.53;;;1.30;;
9214;SDS011;4642;51.364;6.788;2023-05-19T12:23:59;5.77;;;1.90;;
9214;SDS011;4642;51.364;6.788;2023-05-19T12:26:25;3.67;;;1.60;;
9214;SDS011;4642;51.364;6.788;2023-05-19T12:28:51;5.97;;;1.83;;
9214;SDS011;4642;51.364;6.788;2023-05-19T12:31:17;6.10;;;1.67;;
9214;SDS011;4642;51.364;6.788;2023-05-19T12:33:44;4.97;;;1.67;;
9214;SDS011;4642;51.364;6.788;2023-05-19T12:36:15;7.50;;;1.33;;
9214;SDS011;4642;51.364;6.788;2023-05-19T12:38:41;5.30;;;1.73;;
9214;SDS011;4642;51.364;6.788;2023-05-19T12:41:09;5.50;;;1.67;;
9214;SDS011;4642;51.364;6.788;2023-05-19T12:43:36;4.67;;;1.50;;
9214;SDS011;4642;51.364;6.788;2023-05-19T12:46:11;4.07;;;1.40;;
9214;SDS011;4642;51.364;6.788;2023-05-19T12:48:44;5.40;;;1.50;;
9214;SDS011;4642;51.364;6.788;2023-05-19T12:51:17;5.17;;;2.00;;
9214;SDS011;4642;51.364;6.788;2023-05-19T12:53:43;5.13;;;1.83;;
9214;SDS011;4642;51.364;6.788;2023-05-19T12:56:13;3.83;;;1.57;;
9214;SDS011;4642;51.364;6.788;2023-05-19T12:58:42;4.53;;;1.50;;
9214;SDS011;4642;51.364;6.788;2023-05-19T13:01:16;4.57;;;1.60;;
9214;SDS011;4642;51.364;6.788;2023-05-19T13:03:42;2.67;;;1.43;;
9214;SDS011;4642;51.364;6.788;2023-05-19T13:06:08;5.07;;;1.60;;
9214;SDS011;4642;51.364;6.788;2023-05-19T13:08:35;4.37;;;1.43;;
9214;SDS011;4642;51.364;6.788;2023-05-19T13:11:01;6.37;;;1.70;;
9214;SDS011;4642;51.364;6.788;2023-05-19T13:13:26;3.73;;;1.57;;
9214;SDS011;4642;51.364;6.788;2023-05-19T13:15:52;20.43;;;2.60;;
9214;SDS011;4642;51.364;6.788;2023-05-19T13:18:17;8.23;;;1.80;;
9214;SDS011;4642;51.364;6.788;2023-05-19T13:20:44;4.83;;;1.77;;
9214;SDS011;4642;51.364;6.788;2023-05-19T13:26:39;4.50;;;1.60;;
9214;SDS011;4642;51.364;6.788;2023-05-19T13:29:05;4.87;;;1.57;;
9214;SDS011;4642;51.364;6.788;2023-05-19T13:31:32;4.47;;;1.40;;
9214;SDS011;4642;51.364;6.788;2023-05-19T13:33:58;3.73;;;1.27;;
9214;SDS011;4642;51.364;6.788;2023-05-19T13:36:24;7.73;;;1.43;;
9214;SDS011;4642;51.364;6.788;2023-05-19T13:38:51;4.00;;;1.77;;
9214;SDS011;4642;51.364;6.788;2023-05-19T13:41:21;5.40;;;1.70;;
9214;SDS011;4642;51.364;6.788;2023-05-19T13:43:48;3.90;;;1.33;;
9214;SDS011;4642;51.364;6.788;2023-05-19T13:46:14;6.17;;;1.77;;
9214;SDS011;4642;51.364;6.788;2023-05-19T13:48:39;4.47;;;1.37;;
9214;SDS011;4642;51.364;6.788;2023-05-19T13:51:05;3.70;;;1.80;;
9214;SDS011;4642;51.364;6.788;2023-05-19T13:53:30;4.77;;;1.80;;
9214;SDS011;4642;51.364;6.788;2023-05-19T13:55:56;9.30;;;2.03;;
9214;SDS011;4642;51.364;6.788;2023-05-19T13:58:24;6.87;;;1.90;;
9214;SDS011;4642;51.364;6.788;2023-05-19T14:00:49;8.63;;;1.83;;
9214;SDS011;4642;51.364;6.788;2023-05-19T14:03:18;3.13;;;1.33;;
9214;SDS011;4642;51.364;6.788;2023-05-19T14:05:46;7.00;;;1.67;;
9214;SDS011;4642;51.364;6.788;2023-05-19T14:08:12;4.47;;;2.33;;
9214;SDS011;4642;51.364;6.788;2023-05-19T14:10:38;5.67;;;1.33;;
9214;SDS011;4642;51.364;6.788;2023-05-19T14:13:03;5.43;;;1.50;;
9214;SDS011;4642;51.364;6.788;2023-05-19T14:15:29;3.10;;;1.43;;
9214;SDS011;4642;51.364;6.788;2023-05-19T14:17:56;4.70;;;1.50;;
9214;SDS011;4642;51.364;6.788;2023-05-19T14:20:22;4.80;;;1.47;;
9214;SDS011;4642;51.364;6.788;2023-05-19T14:22:48;4.83;;;1.50;;
9214;SDS011;4642;51.364;6.788;2023-05-19T14:25:14;4.53;;;1.50;;
9214;SDS011;4642;51.364;6.788;2023-05-19T14:27:39;4.97;;;1.57;;
9214;SDS011;4642;51.364;6.788;2023-05-19T14:30:05;4.87;;;1.40;;
9214;SDS011;4642;51.364;6.788;2023-05-19T14:32:31;7.90;;;1.50;;
9214;SDS011;4642;51.364;6.788;2023-05-19T14:34:57;5.20;;;1.63;;
9214;SDS011;4642;51.364;6.788;2023-05-19T14:37:22;5.43;;;1.70;;
9214;SDS011;4642;51.364;6.788;2023-05-19T14:39:50;3.70;;;1.43;;
9214;SDS011;4642;51.364;6.788;2023-05-19T14:42:15;2.57;;;1.30;;
9214;SDS011;4642;51.364;6.788;2023-05-19T14:44:41;4.43;;;1.40;;
9214;SDS011;4642;51.364;6.788;2023-05-19T14:47:06;5.33;;;1.43;;
9214;SDS011;4642;51.364;6.788;2023-05-19T14:49:32;3.63;;;1.40;;
9214;SDS011;4642;51.364;6.788;2023-05-19T14:51:57;3.63;;;1.50;;
9214;SDS011;4642;51.364;6.788;2023-05-19T14:54:23;1.87;;;1.30;;
9214;SDS011;4642;51.364;6.788;2023-05-19T14:56:49;2.97;;;1.37;;
9214;SDS011;4642;51.364;6.788;2023-05-19T14:59:14;2.30;;;1.23;;
9214;SDS011;4642;51.364;6.788;2023-05-19T15:01:40;4.20;;;1.33;;
9214;SDS011;4642;51.364;6.788;2023-05-19T15:04:05;2.57;;;1.30;;
9214;SDS011;4642;51.364;6.788;2023-05-19T15:06:31;3.77;;;1.40;;
9214;SDS011;4642;51.364;6.788;2023-05-19T15:08:56;3.10;;;1.30;;
9214;SDS011;4642;51.364;6.788;2023-05-19T15:11:22;5.27;;;1.70;;
9214;SDS011;4642;51.364;6.788;2023-05-19T15:13:47;3.43;;;1.50;;
9214;SDS011;4642;51.364;6.788;2023-05-19T15:16:13;2.40;;;1.20;;
9214;SDS011;4642;51.364;6.788;2023-05-19T15:18:38;2.60;;;1.23;;
9214;SDS011;4642;51.364;6.788;2023-05-19T15:21:04;5.70;;;1.80;;
9214;SDS011;4642;51.364;6.788;2023-05-19T15:23:30;4.47;;;1.67;;
9214;SDS011;4642;51.364;6.788;2023-05-19T15:25:55;4.83;;;1.30;;
9214;SDS011;4642;51.364;6.788;2023-05-19T15:28:21;4.73;;;1.73;;
9214;SDS011;4642;51.364;6.788;2023-05-19T15:30:46;2.23;;;1.30;;
9214;SDS011;4642;51.364;6.788;2023-05-19T15:33:12;4.60;;;1.60;;
9214;SDS011;4642;51.364;6.788;2023-05-19T15:35:38;3.43;;;1.30;;
9214;SDS011;4642;51.364;6.788;2023-05-19T15:38:03;3.93;;;1.20;;
9214;SDS011;4642;51.364;6.788;2023-05-19T15:40:33;3.87;;;1.50;;
9214;SDS011;4642;51.364;6.788;2023-05-19T15:42:59;5.33;;;1.20;;
9214;SDS011;4642;51.364;6.788;2023-05-19T15:45:24;5.47;;;1.70;;
9214;SDS011;4642;51.364;6.788;2023-05-19T15:47:50;2.90;;;1.23;;